createdAt,value
2018-09-17T00:00:48.983Z,5.50
2018-09-17T00:03:20.497Z,5.63
2018-09-17T00:05:51.799Z,5.90
2018-09-17T00:08:23.024Z,5.83
2018-09-17T00:10:54.182Z,5.93
2018-09-17T00:13:25.390Z,6.20
2018-09-17T00:15:56.518Z,6.00
2018-09-17T00:18:28.072Z,6.07
2018-09-17T00:20:59.371Z,6.20
2018-09-17T00:23:30.519Z,5.97
2018-09-17T00:26:02.165Z,6.80
2018-09-17T00:28:33.526Z,6.70
2018-09-17T00:31:05.012Z,6.00
2018-09-17T00:33:36.104Z,6.10
2018-09-17T00:36:07.143Z,6.17
2018-09-17T00:38:38.515Z,5.80
2018-09-17T00:41:10.355Z,6.63
2018-09-17T00:43:41.807Z,6.00
2018-09-17T00:46:13.115Z,5.80
2018-09-17T00:48:44.911Z,7.20
2018-09-17T00:51:16.878Z,7.00
2018-09-17T00:53:48.192Z,6.33
2018-09-17T00:56:19.367Z,6.50
2018-09-17T00:58:51.230Z,6.37
2018-09-17T01:01:22.581Z,7.03
2018-09-17T01:03:54.143Z,7.10
2018-09-17T01:06:25.135Z,6.93
2018-09-17T01:08:56.318Z,6.30
2018-09-17T01:11:27.718Z,7.23
2018-09-17T01:13:58.811Z,7.90
2018-09-17T01:16:30.128Z,6.80
2018-09-17T01:19:01.475Z,7.07
2018-09-17T01:21:32.659Z,7.03
2018-09-17T01:24:04.053Z,7.40
2018-09-17T01:26:35.251Z,6.80
2018-09-17T01:29:06.462Z,6.80
2018-09-17T01:31:37.691Z,7.10
2018-09-17T01:34:09.295Z,7.23
2018-09-17T01:36:40.448Z,7.13
2018-09-17T01:39:12.426Z,8.00
2018-09-17T01:41:43.651Z,7.90
2018-09-17T01:44:14.895Z,7.47
2018-09-17T01:46:45.962Z,6.70
2018-09-17T01:49:17.150Z,7.50
2018-09-17T01:51:48.334Z,7.03
2018-09-17T01:54:19.587Z,6.90
2018-09-17T01:56:50.975Z,6.63
2018-09-17T01:59:22.545Z,6.57
2018-09-17T02:01:53.693Z,6.67
2018-09-17T02:04:26.408Z,6.27
2018-09-17T02:06:57.651Z,6.40
2018-09-17T02:09:28.883Z,6.80
2018-09-17T02:12:00.719Z,6.90
2018-09-17T02:14:32.005Z,7.27
2018-09-17T02:17:03.231Z,6.80
2018-09-17T02:19:35.112Z,7.53
2018-09-17T02:22:06.257Z,8.20
2018-09-17T02:24:37.660Z,8.27
2018-09-17T02:27:09.120Z,8.17
2018-09-17T02:29:40.359Z,9.27
2018-09-17T02:32:11.551Z,10.03
2018-09-17T02:34:42.811Z,10.80
2018-09-17T02:37:13.956Z,10.13
2018-09-17T02:39:45.299Z,10.17
2018-09-17T02:42:16.539Z,10.33
2018-09-17T02:44:47.936Z,9.80
2018-09-17T02:47:19.096Z,10.30
2018-09-17T02:49:50.296Z,10.43
2018-09-17T02:52:21.471Z,10.37
2018-09-17T02:54:52.468Z,13.00
2018-09-17T02:57:24.139Z,13.37
2018-09-17T02:59:55.435Z,13.60
2018-09-17T03:02:26.619Z,13.93
2018-09-17T03:07:35.319Z,13.57
2018-09-17T03:10:06.510Z,14.17
2018-09-17T03:12:37.875Z,13.33
2018-09-17T03:15:25.207Z,13.73
2018-09-17T03:17:56.415Z,12.87
2018-09-17T03:20:27.571Z,13.13
2018-09-17T03:22:58.603Z,12.77
2018-09-17T03:25:29.951Z,13.57
2018-09-17T03:28:01.212Z,13.67
2018-09-17T03:30:32.559Z,13.23
2018-09-17T03:33:03.590Z,13.33
2018-09-17T03:35:34.739Z,13.90
2018-09-17T03:38:26.773Z,14.00
2018-09-17T03:40:57.975Z,14.70
2018-09-17T03:43:28.968Z,14.03
2018-09-17T03:46:00.469Z,14.97
2018-09-17T03:48:32.480Z,14.40
2018-09-17T03:51:04.189Z,15.50
2018-09-17T03:53:35.740Z,15.47
2018-09-17T03:56:06.898Z,14.97
2018-09-17T03:58:38.173Z,14.90
2018-09-17T04:01:09.318Z,15.10
2018-09-17T04:03:40.935Z,14.97
2018-09-17T04:06:12.221Z,15.03
2018-09-17T04:08:43.530Z,15.27
2018-09-17T04:11:15.036Z,15.40
2018-09-17T04:13:46.675Z,15.37
2018-09-17T04:16:17.956Z,15.50
2018-09-17T04:18:49.454Z,15.97
2018-09-17T04:21:20.732Z,14.70
2018-09-17T04:23:51.934Z,14.63
2018-09-17T04:26:23.131Z,16.43
2018-09-17T04:28:54.362Z,15.10
2018-09-17T04:31:27.001Z,14.87
2018-09-17T04:33:58.286Z,15.63
2018-09-17T04:36:29.742Z,16.47
2018-09-17T04:39:00.984Z,14.93
2018-09-17T04:41:32.317Z,15.73
2018-09-17T04:44:03.696Z,15.27
2018-09-17T04:46:35.132Z,15.27
2018-09-17T04:49:06.446Z,15.13
2018-09-17T04:51:38.107Z,15.40
2018-09-17T04:54:09.385Z,15.10
2018-09-17T04:56:40.575Z,15.77
2018-09-17T04:59:11.572Z,14.40
2018-09-17T05:01:43.071Z,15.00
2018-09-17T05:04:14.168Z,14.63
2018-09-17T05:06:45.532Z,13.90
2018-09-17T05:09:16.555Z,14.33
2018-09-17T05:11:47.911Z,13.60
2018-09-17T05:14:19.151Z,13.93
2018-09-17T05:16:50.665Z,13.27
2018-09-17T05:19:22.374Z,12.30
2018-09-17T05:21:53.112Z,11.50
2018-09-17T05:24:24.098Z,11.40
2018-09-17T05:26:55.344Z,11.80
2018-09-17T05:29:27.192Z,11.20
2018-09-17T05:31:58.299Z,11.87
2018-09-17T05:34:29.644Z,12.33
2018-09-17T05:37:01.014Z,12.03
2018-09-17T05:39:32.419Z,11.77
2018-09-17T05:42:03.630Z,11.37
2018-09-17T05:44:34.626Z,12.40
2018-09-17T05:47:06.101Z,12.47
2018-09-17T05:49:37.381Z,12.83
2018-09-17T05:52:08.579Z,12.17
2018-09-17T05:54:39.775Z,12.80
2018-09-17T05:57:10.756Z,12.50
2018-09-17T05:59:41.990Z,12.80
2018-09-17T06:02:13.364Z,12.40
2018-09-17T06:04:44.704Z,12.27
2018-09-17T06:07:15.948Z,13.23
2018-09-17T06:09:47.825Z,12.40
2018-09-17T06:12:20.739Z,13.23
2018-09-17T06:14:51.844Z,13.13
2018-09-17T06:17:22.996Z,13.50
2018-09-17T06:19:54.044Z,13.07
2018-09-17T06:22:25.224Z,13.10
2018-09-17T06:24:56.411Z,12.90
2018-09-17T06:27:27.625Z,13.20
2018-09-17T06:29:58.767Z,12.90
2018-09-17T06:32:29.843Z,13.87
2018-09-17T06:35:00.988Z,13.17
2018-09-17T06:37:32.416Z,15.03
2018-09-17T06:40:04.627Z,14.13
2018-09-17T06:42:35.920Z,13.50
2018-09-17T06:45:07.165Z,14.60
2018-09-17T06:47:38.359Z,14.03
2018-09-17T06:50:10.056Z,13.80
2018-09-17T06:52:41.175Z,14.33
2018-09-17T06:55:12.488Z,13.37
2018-09-17T06:57:43.714Z,14.97
2018-09-17T07:00:14.880Z,13.83
2018-09-17T07:02:46.058Z,14.73
2018-09-17T07:05:17.067Z,15.27
2018-09-17T07:07:48.263Z,14.73
2018-09-17T07:10:19.662Z,14.40
2018-09-17T07:12:50.840Z,14.17
2018-09-17T07:15:21.849Z,13.27
2018-09-17T07:17:53.087Z,14.17
2018-09-17T07:20:24.220Z,13.93
2018-09-17T07:22:55.828Z,14.53
2018-09-17T07:25:28.011Z,13.97
2018-09-17T07:27:59.141Z,14.00
2018-09-17T07:30:30.348Z,13.50
2018-09-17T07:33:01.548Z,12.43
2018-09-17T07:35:32.779Z,11.97
2018-09-17T07:38:03.938Z,12.47
2018-09-17T07:40:35.139Z,12.63
2018-09-17T07:43:06.584Z,11.50
2018-09-17T07:45:38.696Z,10.63
2018-09-17T07:48:09.774Z,11.43
2018-09-17T07:50:40.887Z,10.13
2018-09-17T07:53:12.182Z,10.30
2018-09-17T07:55:43.436Z,9.73
2018-09-17T07:58:14.640Z,9.77
2018-09-17T08:00:45.820Z,9.90
2018-09-17T08:03:16.999Z,10.10
2018-09-17T08:05:48.216Z,9.70
2018-09-17T08:08:19.391Z,9.73
2018-09-17T08:10:52.122Z,8.80
2018-09-17T08:13:23.183Z,9.30
2018-09-17T08:15:54.359Z,9.90
2018-09-17T08:18:26.734Z,8.67
2018-09-17T08:20:57.779Z,9.27
2018-09-17T08:23:28.978Z,8.27
2018-09-17T08:26:00.573Z,8.20
2018-09-17T08:28:31.703Z,8.07
2018-09-17T08:31:03.083Z,8.53
2018-09-17T08:33:34.107Z,8.50
2018-09-17T08:36:05.518Z,8.23
2018-09-17T08:38:36.869Z,8.20
2018-09-17T08:41:08.362Z,8.40
2018-09-17T08:43:39.621Z,8.20
2018-09-17T08:46:10.748Z,8.23
2018-09-17T08:48:43.155Z,7.90
2018-09-17T08:51:14.215Z,7.77
2018-09-17T08:53:45.472Z,7.70
2018-09-17T08:56:21.180Z,7.27
2018-09-17T08:58:57.222Z,7.27
2018-09-17T09:01:34.440Z,7.00
2018-09-17T09:04:10.535Z,6.97
2018-09-17T09:06:46.696Z,6.83
2018-09-17T09:09:17.875Z,7.13
2018-09-17T09:11:53.935Z,6.97
2018-09-17T09:14:30.978Z,6.93
2018-09-17T09:17:02.083Z,7.03
2018-09-17T09:19:33.116Z,7.03
2018-09-17T09:22:04.556Z,6.67
2018-09-17T09:24:36.374Z,6.80
2018-09-17T09:27:07.868Z,6.83
2018-09-17T09:29:39.520Z,6.77
2018-09-17T09:32:10.867Z,6.90
2018-09-17T09:34:42.011Z,6.63
2018-09-17T09:37:13.186Z,6.50
2018-09-17T09:39:44.435Z,6.93
2018-09-17T09:42:15.751Z,7.10
2018-09-17T09:44:47.431Z,7.10
2018-09-17T09:47:18.579Z,6.97
2018-09-17T09:49:49.954Z,6.50
2018-09-17T09:52:22.418Z,6.87
2018-09-17T09:54:53.699Z,6.80
2018-09-17T09:57:25.039Z,7.20
2018-09-17T09:59:56.251Z,7.10
2018-09-17T10:02:32.255Z,6.97
2018-09-17T10:05:03.967Z,7.07
2018-09-17T10:07:34.983Z,7.10
2018-09-17T10:10:11.146Z,6.90
2018-09-17T10:12:47.405Z,6.92
2018-09-17T10:15:23.515Z,6.47
2018-09-17T10:17:59.230Z,7.00
2018-09-17T10:20:30.888Z,6.90
2018-09-17T10:23:02.085Z,6.35
2018-09-17T10:25:33.159Z,6.60
2018-09-17T10:28:04.818Z,6.60
2018-09-17T10:30:35.928Z,6.40
2018-09-17T10:33:07.413Z,6.60
2018-09-17T10:35:38.830Z,6.25
2018-09-17T10:38:10.581Z,6.40
2018-09-17T10:40:42.183Z,5.97
2018-09-17T10:43:13.486Z,6.40
2018-09-17T10:45:44.469Z,6.40
2018-09-17T10:48:15.659Z,6.28
2018-09-17T10:50:46.854Z,6.47
2018-09-17T10:53:18.061Z,6.75
2018-09-17T10:55:49.244Z,7.08
2018-09-17T10:58:20.739Z,6.42
2018-09-17T11:00:52.010Z,6.70
2018-09-17T11:03:23.035Z,6.40
2018-09-17T11:05:54.196Z,6.67
2018-09-17T11:08:25.375Z,6.57
2018-09-17T11:10:56.622Z,6.60
2018-09-17T11:13:28.018Z,7.10
2018-09-17T11:15:59.182Z,6.70
2018-09-17T11:18:30.159Z,6.60
2018-09-17T11:21:01.166Z,6.70
2018-09-17T11:23:34.680Z,6.60
2018-09-17T11:26:06.172Z,6.92
2018-09-17T11:28:37.470Z,6.20
2018-09-17T11:31:07.928Z,6.27
2018-09-17T11:33:39.171Z,6.07
2018-09-17T11:36:10.486Z,6.07
2018-09-17T11:38:41.476Z,5.90
2018-09-17T11:41:12.648Z,5.90
2018-09-17T11:43:44.055Z,5.90
2018-09-17T11:46:15.272Z,5.35
2018-09-17T11:48:46.629Z,5.60
2018-09-17T11:51:17.590Z,5.40
2018-09-17T11:53:48.820Z,5.40
2018-09-17T11:56:19.983Z,5.67
2018-09-17T11:58:51.024Z,5.65
2018-09-17T12:01:27.335Z,5.83
2018-09-17T12:04:03.783Z,5.50
2018-09-17T12:06:39.726Z,5.53
2018-09-17T12:09:11.917Z,5.40
2018-09-17T12:11:43.844Z,5.10
2018-09-17T12:14:15.038Z,5.40
2018-09-17T12:16:46.237Z,5.22
2018-09-17T12:19:17.412Z,5.28
2018-09-17T12:21:48.420Z,5.12
2018-09-17T12:24:19.901Z,5.12
2018-09-17T12:26:51.493Z,5.37
2018-09-17T12:29:22.776Z,5.37
2018-09-17T12:31:53.986Z,5.30
2018-09-17T12:34:25.024Z,5.37
2018-09-17T12:36:56.411Z,5.12
2018-09-17T12:39:27.555Z,5.50
2018-09-17T12:41:58.871Z,5.20
2018-09-17T12:44:29.952Z,5.35
2018-09-17T12:47:01.115Z,5.12
2018-09-17T12:49:32.177Z,5.53
2018-09-17T12:52:03.531Z,5.30
2018-09-17T12:54:34.723Z,5.40
2018-09-17T12:57:06.430Z,5.60
2018-09-17T12:59:37.698Z,6.35
2018-09-17T13:02:08.885Z,5.40
2018-09-17T13:04:40.194Z,5.78
2018-09-17T13:07:11.470Z,5.92
2018-09-17T13:09:43.441Z,5.70
2018-09-17T13:12:14.649Z,5.55
2018-09-17T13:14:46.056Z,5.58
2018-09-17T13:17:17.383Z,5.67
2018-09-17T13:19:48.422Z,5.58
2018-09-17T13:22:19.771Z,5.30
2018-09-17T13:24:51.005Z,5.47
2018-09-17T13:27:22.159Z,5.60
2018-09-17T13:29:53.375Z,5.57
2018-09-17T13:32:24.367Z,6.12
2018-09-17T13:34:55.595Z,5.80
2018-09-17T13:37:26.945Z,5.30
2018-09-17T13:39:58.052Z,5.75
2018-09-17T13:42:29.193Z,5.72
2018-09-17T13:45:00.808Z,5.12
2018-09-17T13:47:32.416Z,5.50
2018-09-17T13:50:03.570Z,6.42
2018-09-17T13:52:35.112Z,5.85
2018-09-17T13:55:06.388Z,5.67
2018-09-17T13:57:37.431Z,5.45
2018-09-17T14:00:08.806Z,5.17
2018-09-17T14:02:39.843Z,5.15
2018-09-17T14:05:10.915Z,5.53
2018-09-17T14:07:42.035Z,5.55
2018-09-17T14:10:13.358Z,5.60
2018-09-17T14:12:44.394Z,5.70
2018-09-17T14:15:15.435Z,5.37
2018-09-17T14:17:46.852Z,5.33
2018-09-17T14:20:18.205Z,5.40
2018-09-17T14:22:50.624Z,5.30
2018-09-17T14:25:22.451Z,5.67
2018-09-17T14:27:53.721Z,5.17
2018-09-17T14:30:24.923Z,5.63
2018-09-17T14:33:01.014Z,5.33
2018-09-17T14:35:32.316Z,5.53
2018-09-17T14:38:03.623Z,5.40
2018-09-17T14:40:34.992Z,5.10
2018-09-17T14:43:06.703Z,5.60
2018-09-17T14:45:37.890Z,5.30
2018-09-17T14:48:09.207Z,5.60
2018-09-17T14:50:40.380Z,5.20
2018-09-17T14:53:11.837Z,5.77
2018-09-17T14:55:43.026Z,5.80
2018-09-17T14:58:14.574Z,5.77
2018-09-17T15:00:45.775Z,5.50
2018-09-17T15:03:16.874Z,5.43
2018-09-17T15:05:47.908Z,5.47
2018-09-17T15:08:19.302Z,5.73
2018-09-17T15:10:50.743Z,5.70
2018-09-17T15:13:22.080Z,5.20
2018-09-17T15:15:56.891Z,5.70
2018-09-17T15:18:28.438Z,5.17
2018-09-17T15:20:59.606Z,5.40
2018-09-17T15:23:30.938Z,5.37
2018-09-17T15:26:02.193Z,5.50
2018-09-17T15:28:33.559Z,5.33
2018-09-17T15:31:05.067Z,5.53
2018-09-17T15:33:36.271Z,5.57
2018-09-17T15:36:08.350Z,5.63
2018-09-17T15:38:39.678Z,5.70
2018-09-17T15:41:11.164Z,5.40
2018-09-17T15:43:42.277Z,5.47
2018-09-17T15:46:13.719Z,5.67
2018-09-17T15:48:44.831Z,5.30
2018-09-17T15:51:16.812Z,5.70
2018-09-17T15:53:47.998Z,5.60
2018-09-17T15:56:19.615Z,6.00
2018-09-17T15:58:50.599Z,5.60
2018-09-17T16:01:23.543Z,5.40
2018-09-17T16:03:54.503Z,5.90
2018-09-17T16:06:25.506Z,5.67
2018-09-17T16:08:56.735Z,5.63
2018-09-17T16:11:27.927Z,5.77
2018-09-17T16:13:59.357Z,5.70
2018-09-17T16:16:30.707Z,5.80
2018-09-17T16:19:02.163Z,6.17
2018-09-17T16:21:34.133Z,6.10
2018-09-17T16:24:06.609Z,5.80
2018-09-17T16:26:38.152Z,5.70
2018-09-17T16:29:09.384Z,6.10
2018-09-17T16:31:40.427Z,5.70
2018-09-17T16:34:12.852Z,5.73
2018-09-17T16:36:44.200Z,5.70
2018-09-17T16:39:15.534Z,5.90
2018-09-17T16:41:46.727Z,6.40
2018-09-17T16:44:17.932Z,6.00
2018-09-17T16:46:49.085Z,6.17
2018-09-17T16:49:20.300Z,6.03
2018-09-17T16:51:51.593Z,5.80
2018-09-17T16:54:22.871Z,6.10
2018-09-17T16:56:53.884Z,6.20
2018-09-17T16:59:25.738Z,6.00
2018-09-17T17:01:57.191Z,5.80
2018-09-17T17:04:28.474Z,6.10
2018-09-17T17:06:59.684Z,5.93
2018-09-17T17:09:30.833Z,5.80
2018-09-17T17:12:02.112Z,5.80
2018-09-17T17:14:33.216Z,6.37
2018-09-17T17:17:04.418Z,5.70
2018-09-17T17:19:35.867Z,6.30
2018-09-17T17:22:07.220Z,6.13
2018-09-17T17:24:38.570Z,6.27
2018-09-17T17:27:10.224Z,6.00
2018-09-17T17:29:41.555Z,6.53
2018-09-17T17:32:12.798Z,6.50
2018-09-17T17:34:43.946Z,6.70
2018-09-17T17:37:15.301Z,6.20
2018-09-17T17:39:47.104Z,6.37
2018-09-17T17:42:18.092Z,6.50
2018-09-17T17:44:49.454Z,6.47
2018-09-17T17:47:20.483Z,6.60
2018-09-17T17:49:51.629Z,6.43
2018-09-17T17:52:22.913Z,6.40
2018-09-17T17:54:54.088Z,6.33
2018-09-17T17:57:26.499Z,6.67
2018-09-17T17:59:57.893Z,6.47
2018-09-17T18:02:29.851Z,7.00
2018-09-17T18:05:01.172Z,6.97
2018-09-17T18:07:32.655Z,7.17
2018-09-17T18:10:03.815Z,6.60
2018-09-17T18:12:34.955Z,6.53
2018-09-17T18:15:06.507Z,6.70
2018-09-17T18:17:37.536Z,6.83
2018-09-17T18:20:09.256Z,6.87
2018-09-17T18:22:40.486Z,6.77
2018-09-17T18:25:11.785Z,6.90
2018-09-17T18:27:43.043Z,7.20
2018-09-17T18:30:14.819Z,6.90
2018-09-17T18:32:45.916Z,6.80
2018-09-17T18:35:17.045Z,7.13
2018-09-17T18:37:48.698Z,6.27
2018-09-17T18:40:19.885Z,6.80
2018-09-17T18:42:51.019Z,6.90
2018-09-17T18:45:22.563Z,7.20
2018-09-17T18:47:54.037Z,7.17
2018-09-17T18:50:25.584Z,7.00
2018-09-17T18:52:56.944Z,6.90
2018-09-17T18:55:27.981Z,7.30
2018-09-17T18:57:59.319Z,6.73
2018-09-17T19:00:30.326Z,7.67
2018-09-17T19:03:01.591Z,7.20
2018-09-17T19:05:32.922Z,7.33
2018-09-17T19:08:04.122Z,6.90
2018-09-17T19:10:35.354Z,6.90
2018-09-17T19:13:08.152Z,7.53
2018-09-17T19:15:44.627Z,7.70
2018-09-17T19:18:19.808Z,7.27
2018-09-17T19:20:51.599Z,7.20
2018-09-17T19:23:27.300Z,6.93
2018-09-17T19:25:58.625Z,6.70
2018-09-17T19:28:34.865Z,7.20
2018-09-17T19:31:06.083Z,7.13
2018-09-17T19:33:37.832Z,7.03
2018-09-17T19:36:09.221Z,6.90
2018-09-17T19:38:45.342Z,6.70
2018-09-17T19:41:16.861Z,6.43
2018-09-17T19:43:48.326Z,6.80
2018-09-17T19:46:20.465Z,6.33
2018-09-17T19:48:51.602Z,6.47
2018-09-17T19:51:27.927Z,6.63
2018-09-17T19:53:59.783Z,6.40
2018-09-17T19:56:30.809Z,6.57
2018-09-17T19:59:07.090Z,6.30
2018-09-17T20:01:38.491Z,6.57
2018-09-17T20:04:14.639Z,6.00
2018-09-17T20:06:45.847Z,5.93
2018-09-17T20:09:16.976Z,6.13
2018-09-17T20:11:48.171Z,6.10
2018-09-17T20:14:19.586Z,6.40
2018-09-17T20:16:50.936Z,6.10
2018-09-17T20:19:22.318Z,5.77
2018-09-17T20:21:53.530Z,5.90
2018-09-17T20:24:24.876Z,5.97
2018-09-17T20:26:56.277Z,6.00
2018-09-17T20:29:27.476Z,5.97
2018-09-17T20:31:58.657Z,5.83
2018-09-17T20:34:30.031Z,5.93
2018-09-17T20:37:01.373Z,5.77
2018-09-17T20:39:33.398Z,5.63
2018-09-17T20:42:04.613Z,5.70
2018-09-17T20:44:36.284Z,6.00
2018-09-17T20:47:07.875Z,5.73
2018-09-17T20:49:39.198Z,5.97
2018-09-17T20:52:10.369Z,5.43
2018-09-17T20:54:41.619Z,5.90
2018-09-17T20:57:12.723Z,5.40
2018-09-17T20:59:44.344Z,5.60
2018-09-17T21:02:15.518Z,5.20
2018-09-17T21:04:47.176Z,5.47
2018-09-17T21:07:18.605Z,5.43
2018-09-17T21:09:50.483Z,5.30
2018-09-17T21:12:21.736Z,5.63
2018-09-17T21:14:53.088Z,5.20
2018-09-17T21:17:24.226Z,5.50
2018-09-17T21:19:55.415Z,5.50
2018-09-17T21:22:26.785Z,5.33
2018-09-17T21:24:58.450Z,5.40
2018-09-17T21:27:29.768Z,5.43
2018-09-17T21:30:00.774Z,5.50
2018-09-17T21:32:31.958Z,5.47
2018-09-17T21:35:03.935Z,5.53
2018-09-17T21:37:35.481Z,5.60
2018-09-17T21:40:06.792Z,5.63
2018-09-17T21:42:38.065Z,6.10
2018-09-17T21:46:12.305Z,6.00
2018-09-17T21:48:43.600Z,5.63
2018-09-17T21:51:14.796Z,5.87
2018-09-17T21:53:45.793Z,5.60
2018-09-17T21:56:18.605Z,5.73
2018-09-17T21:58:49.927Z,5.87
2018-09-17T22:01:21.732Z,5.97
2018-09-17T22:03:54.210Z,6.10
2018-09-17T22:06:25.499Z,6.17
2018-09-17T22:08:56.887Z,5.90
2018-09-17T22:11:28.540Z,6.13
2018-09-17T22:13:59.644Z,6.60
2018-09-17T22:16:30.624Z,6.67
2018-09-17T22:19:01.999Z,6.50
2018-09-17T22:21:33.220Z,6.77
2018-09-17T22:24:04.732Z,6.47
2018-09-17T22:26:36.227Z,6.77
2018-09-17T22:29:07.420Z,7.23
2018-09-17T22:31:38.579Z,6.90
2018-09-17T22:34:10.557Z,7.30
2018-09-17T22:36:41.730Z,7.30
2018-09-17T22:39:13.387Z,7.10
2018-09-17T22:41:44.740Z,8.00
2018-09-17T22:44:16.102Z,7.43
2018-09-17T22:46:47.463Z,8.03
2018-09-17T22:49:19.098Z,7.80
2018-09-17T22:51:50.904Z,8.17
2018-09-17T22:54:22.357Z,7.97
2018-09-17T22:56:53.639Z,8.20
2018-09-17T22:59:26.343Z,7.87
2018-09-17T23:01:57.667Z,8.30
2018-09-17T23:04:29.228Z,8.27
2018-09-17T23:07:00.579Z,8.57
2018-09-17T23:09:31.726Z,8.03
2018-09-17T23:12:02.784Z,8.33
2018-09-17T23:14:34.129Z,8.83
2018-09-17T23:17:05.522Z,8.87
2018-09-17T23:19:36.887Z,8.90
2018-09-17T23:22:08.071Z,8.70
2018-09-17T23:24:39.365Z,9.93
2018-09-17T23:27:10.898Z,9.43
2018-09-17T23:29:42.224Z,9.27
2018-09-17T23:32:14.111Z,9.80
2018-09-17T23:34:45.420Z,10.07
2018-09-17T23:37:16.775Z,10.00
2018-09-17T23:39:48.012Z,10.50
2018-09-17T23:42:19.648Z,10.33
2018-09-17T23:44:50.808Z,10.37
2018-09-17T23:47:22.155Z,10.53
2018-09-17T23:49:53.428Z,9.93
2018-09-17T23:52:24.609Z,10.47
2018-09-17T23:54:55.797Z,10.67
2018-09-17T23:57:27.421Z,10.37
2018-09-17T23:59:58.744Z,9.97
